createdAt,value
2022-08-17T00:00:43.295Z,100.00
2022-08-17T00:03:35.886Z,100.00
2022-08-17T00:06:25.221Z,100.00
2022-08-17T00:09:10.508Z,100.00
2022-08-17T00:12:51.380Z,100.00
2022-08-17T00:15:12.066Z,100.00
2022-08-17T00:17:57.132Z,100.00
2022-08-17T00:20:42.414Z,100.00
2022-08-17T00:23:28.169Z,100.00
2022-08-17T00:26:14.414Z,100.00
2022-08-17T00:29:00.502Z,100.00
2022-08-17T00:31:45.600Z,100.00
2022-08-17T00:34:30.864Z,100.00
2022-08-17T00:37:16.959Z,100.00
2022-08-17T00:40:02.238Z,100.00
2022-08-17T00:42:49.559Z,100.00
2022-08-17T00:45:34.818Z,100.00
2022-08-17T00:48:29.017Z,100.00
2022-08-17T00:51:25.903Z,100.00
2022-08-17T00:54:10.846Z,100.00
2022-08-17T00:57:04.826Z,100.00
2022-08-17T01:00:01.813Z,100.00
2022-08-17T01:02:48.967Z,100.00
2022-08-17T01:05:38.351Z,100.00
2022-08-17T01:08:31.083Z,100.00
2022-08-17T01:11:17.179Z,100.00
2022-08-17T01:14:03.150Z,100.00
2022-08-17T01:16:50.602Z,100.00
2022-08-17T01:19:40.074Z,100.00
2022-08-17T01:22:25.578Z,100.00
2022-08-17T01:25:12.545Z,100.00
2022-08-17T01:27:57.602Z,100.00
2022-08-17T01:30:57.437Z,100.00
2022-08-17T01:33:44.495Z,100.00
2022-08-17T01:36:30.436Z,100.00
2022-08-17T01:39:30.693Z,100.00
2022-08-17T01:42:24.840Z,100.00
2022-08-17T01:45:20.724Z,100.00
2022-08-17T01:48:05.852Z,100.00
2022-08-17T01:50:51.960Z,100.00
2022-08-17T01:53:40.646Z,100.00
2022-08-17T01:56:27.905Z,100.00
2022-08-17T01:59:13.570Z,100.00
2022-08-17T02:02:00.777Z,100.00
2022-08-17T02:04:45.943Z,100.00
2022-08-17T02:07:30.855Z,100.00
2022-08-17T02:10:20.099Z,100.00
2022-08-17T02:13:05.865Z,100.00
2022-08-17T02:15:51.125Z,100.00
2022-08-17T02:18:36.469Z,100.00
2022-08-17T02:21:21.594Z,100.00
2022-08-17T02:24:10.836Z,100.00
2022-08-17T02:26:56.068Z,100.00
2022-08-17T02:29:41.050Z,100.00
2022-08-17T02:32:28.256Z,100.00
2022-08-17T02:35:14.471Z,100.00
2022-08-17T02:38:06.297Z,100.00
2022-08-17T02:40:51.825Z,100.00
2022-08-17T02:43:37.094Z,100.00
2022-08-17T02:46:22.640Z,100.00
2022-08-17T02:49:07.618Z,100.00
2022-08-17T02:51:52.575Z,100.00
2022-08-17T02:54:39.854Z,100.00
2022-08-17T02:57:27.044Z,100.00
2022-08-17T03:00:17.638Z,100.00
2022-08-17T03:03:05.553Z,100.00
2022-08-17T03:05:53.991Z,100.00
2022-08-17T03:08:39.113Z,100.00
2022-08-17T03:11:24.386Z,100.00
2022-08-17T03:14:09.659Z,100.00
2022-08-17T03:16:54.878Z,100.00
2022-08-17T03:19:42.902Z,100.00
2022-08-17T03:22:36.842Z,100.00
2022-08-17T03:25:27.457Z,100.00
2022-08-17T03:28:13.758Z,100.00
2022-08-17T03:30:59.046Z,100.00
2022-08-17T03:33:44.646Z,100.00
2022-08-17T03:36:29.791Z,100.00
2022-08-17T03:39:20.938Z,100.00
2022-08-17T03:42:32.564Z,100.00
2022-08-17T03:45:42.714Z,100.00
2022-08-17T03:48:47.186Z,100.00
2022-08-17T03:51:50.925Z,100.00
2022-08-17T03:54:55.122Z,100.00
2022-08-17T03:57:40.545Z,100.00
2022-08-17T04:00:27.686Z,100.00
2022-08-17T04:03:13.859Z,100.00
2022-08-17T04:06:00.299Z,100.00
2022-08-17T04:08:45.687Z,100.00
2022-08-17T04:11:30.934Z,100.00
2022-08-17T04:14:16.278Z,100.00
2022-08-17T04:17:01.519Z,100.00
2022-08-17T04:19:46.979Z,100.00
2022-08-17T04:22:34.328Z,100.00
2022-08-17T04:25:19.451Z,100.00
2022-08-17T04:28:15.521Z,100.00
2022-08-17T04:31:01.518Z,100.00
2022-08-17T04:33:46.945Z,100.00
2022-08-17T04:36:32.233Z,100.00
2022-08-17T04:39:17.485Z,100.00
2022-08-17T04:42:16.938Z,100.00
2022-08-17T04:45:04.475Z,100.00
2022-08-17T04:47:49.605Z,100.00
2022-08-17T04:50:36.274Z,100.00
2022-08-17T04:53:21.737Z,100.00
2022-08-17T04:56:07.902Z,100.00
2022-08-17T04:59:00.865Z,100.00
2022-08-17T05:01:50.913Z,100.00
2022-08-17T05:04:36.118Z,100.00
2022-08-17T05:07:24.605Z,100.00
2022-08-17T05:10:11.293Z,100.00
2022-08-17T05:13:02.009Z,100.00
2022-08-17T05:15:49.082Z,100.00
2022-08-17T05:18:34.799Z,100.00
2022-08-17T05:21:21.642Z,100.00
2022-08-17T05:24:09.671Z,100.00
2022-08-17T05:27:14.331Z,100.00
2022-08-17T05:30:04.545Z,100.00
2022-08-17T05:32:57.069Z,100.00
2022-08-17T05:35:46.913Z,100.00
2022-08-17T05:38:32.116Z,100.00
2022-08-17T05:41:17.212Z,100.00
2022-08-17T05:44:05.212Z,100.00
2022-08-17T05:46:53.201Z,100.00
2022-08-17T05:49:38.678Z,100.00
2022-08-17T05:52:41.414Z,100.00
2022-08-17T05:55:35.598Z,100.00
2022-08-17T05:58:52.804Z,100.00
2022-08-17T06:01:51.431Z,100.00
2022-08-17T06:05:03.382Z,100.00
2022-08-17T06:08:00.799Z,100.00
2022-08-17T06:11:20.107Z,100.00
2022-08-17T06:14:07.930Z,100.00
2022-08-17T06:16:59.974Z,100.00
2022-08-17T06:19:48.164Z,100.00
2022-08-17T06:22:37.894Z,100.00
2022-08-17T06:25:34.757Z,100.00
2022-08-17T06:28:34.297Z,100.00
2022-08-17T06:31:28.021Z,100.00
2022-08-17T06:34:13.577Z,100.00
2022-08-17T06:37:18.995Z,100.00
2022-08-17T06:40:22.830Z,100.00
2022-08-17T06:43:40.191Z,100.00
2022-08-17T06:46:36.159Z,100.00
2022-08-17T06:49:40.525Z,100.00
2022-08-17T06:52:43.387Z,100.00
2022-08-17T06:55:50.178Z,100.00
2022-08-17T06:58:40.129Z,100.00
2022-08-17T07:01:33.325Z,100.00
2022-08-17T07:04:23.809Z,100.00
2022-08-17T07:07:28.989Z,100.00
2022-08-17T07:10:14.757Z,100.00
2022-08-17T07:13:13.936Z,100.00
2022-08-17T07:16:07.682Z,100.00
2022-08-17T07:18:54.791Z,100.00
2022-08-17T07:21:52.150Z,100.00
2022-08-17T07:25:06.490Z,100.00
2022-08-17T07:27:55.790Z,100.00
2022-08-17T07:30:49.186Z,100.00
2022-08-17T07:33:36.811Z,100.00
2022-08-17T07:36:30.095Z,100.00
2022-08-17T07:39:27.714Z,100.00
2022-08-17T07:42:12.707Z,100.00
2022-08-17T07:44:58.079Z,100.00
2022-08-17T07:48:09.050Z,100.00
2022-08-17T07:50:54.460Z,100.00
2022-08-17T07:53:39.799Z,100.00
2022-08-17T07:56:45.252Z,100.00
2022-08-17T07:59:33.452Z,100.00
2022-08-17T08:02:26.459Z,100.00
2022-08-17T08:05:50.243Z,100.00
2022-08-17T08:08:50.413Z,100.00
2022-08-17T08:11:39.266Z,100.00
2022-08-17T08:14:33.926Z,100.00
2022-08-17T08:17:23.893Z,100.00
2022-08-17T08:20:51.106Z,100.00
2022-08-17T08:23:44.118Z,100.00
2022-08-17T08:26:55.469Z,100.00
2022-08-17T08:29:52.674Z,100.00
2022-08-17T08:33:07.549Z,99.37
2022-08-17T08:37:14.049Z,98.53
2022-08-17T08:39:32.564Z,98.92
2022-08-17T08:42:37.178Z,97.76
2022-08-17T08:45:46.772Z,96.19
2022-08-17T08:49:06.472Z,97.00
2022-08-17T08:52:02.577Z,96.54
2022-08-17T08:54:53.923Z,95.88
2022-08-17T08:58:32.198Z,95.72
2022-08-17T09:01:48.267Z,95.66
2022-08-17T09:05:14.232Z,95.06
2022-08-17T09:08:21.354Z,92.83
2022-08-17T09:11:18.284Z,91.33
2022-08-17T09:14:28.223Z,91.50
2022-08-17T09:17:20.612Z,91.87
2022-08-17T09:20:27.614Z,91.33
2022-08-17T09:23:19.593Z,90.72
2022-08-17T09:26:25.486Z,89.70
2022-08-17T09:29:14.218Z,87.63
2022-08-17T09:32:04.571Z,86.35
2022-08-17T09:35:01.480Z,86.66
2022-08-17T09:38:00.479Z,86.15
2022-08-17T09:40:48.859Z,86.66
2022-08-17T09:43:48.964Z,85.62
2022-08-17T09:46:44.015Z,84.63
2022-08-17T09:49:38.200Z,84.28
2022-08-17T09:52:27.187Z,84.10
2022-08-17T09:55:12.166Z,83.86
2022-08-17T09:58:16.880Z,83.02
2022-08-17T10:01:31.375Z,82.87
2022-08-17T10:04:38.763Z,82.24
2022-08-17T10:07:40.522Z,81.89
2022-08-17T10:10:32.495Z,81.82
2022-08-17T10:13:53.167Z,81.49
2022-08-17T10:16:50.000Z,80.62
2022-08-17T10:19:46.992Z,79.20
2022-08-17T10:23:01.128Z,78.39
2022-08-17T10:26:09.199Z,77.53
2022-08-17T10:29:01.835Z,77.84
2022-08-17T10:32:10.738Z,77.98
2022-08-17T10:35:10.762Z,78.07
2022-08-17T10:38:14.645Z,78.54
2022-08-17T10:41:24.082Z,77.35
2022-08-17T10:44:39.557Z,76.99
2022-08-17T10:47:17.304Z,76.55
2022-08-17T10:50:40.635Z,75.93
2022-08-17T10:53:31.810Z,75.25
2022-08-17T10:56:21.676Z,74.82
2022-08-17T10:59:07.791Z,74.32
2022-08-17T11:02:04.170Z,72.66
2022-08-17T11:04:57.220Z,71.48
2022-08-17T11:07:43.757Z,70.87
2022-08-17T11:10:53.785Z,70.49
2022-08-17T11:13:44.867Z,70.16
2022-08-17T11:16:49.738Z,69.66
2022-08-17T11:20:04.852Z,69.75
2022-08-17T11:23:05.109Z,69.86
2022-08-17T11:26:04.101Z,70.08
2022-08-17T11:28:52.648Z,69.96
2022-08-17T11:31:46.484Z,69.82
2022-08-17T11:34:34.926Z,70.05
2022-08-17T11:37:20.246Z,70.32
2022-08-17T11:40:58.989Z,70.79
2022-08-17T11:43:56.285Z,70.11
2022-08-17T11:47:26.166Z,70.75
2022-08-17T11:50:49.762Z,71.02
2022-08-17T11:53:37.977Z,70.97
2022-08-17T11:56:36.061Z,69.06
2022-08-17T11:59:32.787Z,68.54
2022-08-17T12:02:32.897Z,68.49
2022-08-17T12:05:18.065Z,68.13
2022-08-17T12:08:08.175Z,67.69
2022-08-17T12:10:53.317Z,67.98
2022-08-17T12:13:50.090Z,67.68
2022-08-17T12:16:35.193Z,67.80
2022-08-17T12:19:21.647Z,67.11
2022-08-17T12:22:12.733Z,67.73
2022-08-17T12:25:04.874Z,67.04
2022-08-17T12:28:06.352Z,66.74
2022-08-17T12:30:53.244Z,67.60
2022-08-17T12:33:43.750Z,67.65
2022-08-17T12:36:29.326Z,67.67
2022-08-17T12:39:21.326Z,68.34
2022-08-17T12:42:25.455Z,68.45
2022-08-17T12:45:32.561Z,68.82
2022-08-17T12:48:26.349Z,69.00
2022-08-17T12:51:12.680Z,68.34
2022-08-17T12:53:57.931Z,68.39
2022-08-17T12:56:46.002Z,68.09
2022-08-17T12:59:33.238Z,67.94
2022-08-17T13:02:38.696Z,67.42
2022-08-17T13:05:42.199Z,67.61
2022-08-17T13:08:32.668Z,67.50
2022-08-17T13:11:24.775Z,67.23
2022-08-17T13:14:10.598Z,67.28
2022-08-17T13:17:01.511Z,66.76
2022-08-17T13:19:50.938Z,67.00
2022-08-17T13:22:36.097Z,67.26
2022-08-17T13:25:21.597Z,67.58
2022-08-17T13:28:18.540Z,67.91
2022-08-17T13:31:32.261Z,68.80
2022-08-17T13:34:16.985Z,70.13
2022-08-17T13:37:34.580Z,71.84
2022-08-17T13:40:19.533Z,72.38
2022-08-17T13:43:05.037Z,72.96
2022-08-17T13:45:52.197Z,73.78
2022-08-17T13:48:37.638Z,74.50
2022-08-17T13:51:29.942Z,75.44
2022-08-17T13:54:21.074Z,75.88
2022-08-17T13:57:11.991Z,75.81
2022-08-17T14:00:11.984Z,76.04
2022-08-17T14:02:58.761Z,76.69
2022-08-17T14:05:45.936Z,77.16
2022-08-17T14:08:31.207Z,77.55
2022-08-17T14:11:17.575Z,77.53
2022-08-17T14:14:03.977Z,78.50
2022-08-17T14:16:49.918Z,78.92
2022-08-17T14:19:36.143Z,79.79
2022-08-17T14:22:26.931Z,80.48
2022-08-17T14:25:15.128Z,81.12
2022-08-17T14:28:00.492Z,81.85
2022-08-17T14:30:46.319Z,81.28
2022-08-17T14:33:31.491Z,81.42
2022-08-17T14:36:16.640Z,81.58
2022-08-17T14:39:01.814Z,81.27
2022-08-17T14:41:47.489Z,81.28
2022-08-17T14:44:32.570Z,81.73
2022-08-17T14:47:17.794Z,82.70
2022-08-17T14:50:04.704Z,83.76
2022-08-17T14:52:55.804Z,84.56
2022-08-17T14:55:45.719Z,85.26
2022-08-17T14:58:32.542Z,85.46
2022-08-17T15:01:19.973Z,86.09
2022-08-17T15:04:05.792Z,86.84
2022-08-17T15:06:50.894Z,87.26
2022-08-17T15:09:35.830Z,87.38
2022-08-17T15:12:25.601Z,87.33
2022-08-17T15:15:17.273Z,86.64
2022-08-17T15:18:03.293Z,86.69
2022-08-17T15:20:50.080Z,86.93
2022-08-17T15:23:35.272Z,87.15
2022-08-17T15:26:26.055Z,86.99
2022-08-17T15:29:11.789Z,87.07
2022-08-17T15:32:00.586Z,86.65
2022-08-17T15:34:46.064Z,87.21
2022-08-17T15:37:32.085Z,88.59
2022-08-17T15:40:17.499Z,89.00
2022-08-17T15:43:11.450Z,90.96
2022-08-17T15:46:00.657Z,93.55
2022-08-17T15:48:49.079Z,95.26
2022-08-17T15:51:35.630Z,97.26
2022-08-17T15:54:22.707Z,98.84
2022-08-17T15:57:08.603Z,100.00
2022-08-17T15:59:58.558Z,100.00
2022-08-17T16:03:14.331Z,100.00
2022-08-17T16:05:50.132Z,100.00
2022-08-17T16:08:37.619Z,100.00
2022-08-17T16:11:23.038Z,100.00
2022-08-17T16:14:08.229Z,100.00
2022-08-17T16:16:53.553Z,100.00
2022-08-17T16:19:40.980Z,100.00
2022-08-17T16:22:38.778Z,100.00
2022-08-17T16:25:52.471Z,100.00
2022-08-17T16:28:36.226Z,100.00
2022-08-17T16:31:21.774Z,100.00
2022-08-17T16:34:17.503Z,100.00
2022-08-17T16:37:04.385Z,100.00
2022-08-17T16:39:49.808Z,100.00
2022-08-17T16:42:37.045Z,100.00
2022-08-17T16:45:28.053Z,100.00
2022-08-17T16:48:15.286Z,100.00
2022-08-17T16:51:04.160Z,100.00
2022-08-17T16:53:59.166Z,100.00
2022-08-17T16:56:44.549Z,100.00
2022-08-17T16:59:41.968Z,100.00
2022-08-17T17:02:34.045Z,100.00
2022-08-17T17:05:43.417Z,100.00
2022-08-17T17:08:40.686Z,100.00
2022-08-17T17:11:43.463Z,100.00
2022-08-17T17:14:42.952Z,100.00
2022-08-17T17:17:32.574Z,100.00
2022-08-17T17:20:19.192Z,100.00
2022-08-17T17:23:06.923Z,100.00
2022-08-17T17:26:20.887Z,100.00
2022-08-17T17:29:16.238Z,100.00
2022-08-17T17:32:01.382Z,100.00
2022-08-17T17:34:53.281Z,100.00
2022-08-17T17:37:42.762Z,100.00
2022-08-17T17:40:40.273Z,100.00
2022-08-17T17:43:38.916Z,100.00
2022-08-17T17:46:35.238Z,100.00
2022-08-17T17:49:20.915Z,100.00
2022-08-17T17:52:29.591Z,100.00
2022-08-17T17:55:26.939Z,100.00
2022-08-17T17:58:19.610Z,100.00
2022-08-17T18:01:18.653Z,100.00
2022-08-17T18:04:37.943Z,100.00
2022-08-17T18:07:32.399Z,100.00
2022-08-17T18:10:29.497Z,100.00
2022-08-17T18:13:37.952Z,100.00
2022-08-17T18:16:23.370Z,100.00
2022-08-17T18:19:20.594Z,100.00
2022-08-17T18:22:19.701Z,100.00
2022-08-17T18:25:39.880Z,100.00
2022-08-17T18:28:30.112Z,100.00
2022-08-17T18:31:15.075Z,100.00
2022-08-17T18:34:46.040Z,100.00
2022-08-17T18:37:34.411Z,100.00
2022-08-17T18:40:19.943Z,100.00
2022-08-17T18:43:13.419Z,100.00
2022-08-17T18:46:37.693Z,100.00
2022-08-17T18:49:28.476Z,100.00
2022-08-17T18:52:29.083Z,100.00
2022-08-17T18:55:23.508Z,100.00
2022-08-17T18:58:24.466Z,100.00
2022-08-17T19:01:20.690Z,100.00
2022-08-17T19:04:15.087Z,100.00
2022-08-17T19:07:11.486Z,100.00
2022-08-17T19:10:06.958Z,100.00
2022-08-17T19:13:00.648Z,100.00
2022-08-17T19:16:12.080Z,100.00
2022-08-17T19:19:14.455Z,100.00
2022-08-17T19:22:30.659Z,100.00
2022-08-17T19:25:27.121Z,100.00
2022-08-17T19:28:32.913Z,100.00
2022-08-17T19:31:22.202Z,100.00
2022-08-17T19:34:07.433Z,100.00
2022-08-17T19:37:16.911Z,100.00
2022-08-17T19:40:48.765Z,100.00
2022-08-17T19:43:42.903Z,100.00
2022-08-17T19:46:58.442Z,100.00
2022-08-17T19:50:08.714Z,100.00
2022-08-17T19:53:07.283Z,100.00
2022-08-17T19:56:07.086Z,100.00
2022-08-17T19:58:58.119Z,100.00
2022-08-17T20:01:52.753Z,100.00
2022-08-17T20:04:42.933Z,100.00
2022-08-17T20:07:40.062Z,100.00
2022-08-17T20:10:47.310Z,100.00
2022-08-17T20:14:09.493Z,100.00
2022-08-17T20:16:59.289Z,100.00
2022-08-17T20:19:53.207Z,100.00
2022-08-17T20:22:54.793Z,100.00
2022-08-17T20:25:51.989Z,100.00
2022-08-17T20:28:39.038Z,100.00
2022-08-17T20:31:44.632Z,100.00
2022-08-17T20:34:39.626Z,100.00
2022-08-17T20:37:33.966Z,100.00
2022-08-17T20:40:26.385Z,100.00
2022-08-17T20:43:29.794Z,100.00
2022-08-17T20:46:23.908Z,100.00
2022-08-17T20:49:08.833Z,100.00
2022-08-17T20:52:08.888Z,100.00
2022-08-17T20:54:54.989Z,100.00
2022-08-17T20:57:40.061Z,100.00
2022-08-17T21:00:28.023Z,100.00
2022-08-17T21:03:50.516Z,100.00
2022-08-17T21:07:22.407Z,100.00
2022-08-17T21:10:13.890Z,100.00
2022-08-17T21:13:04.374Z,100.00
2022-08-17T21:15:53.113Z,100.00
2022-08-17T21:19:00.019Z,100.00
2022-08-17T21:21:46.517Z,100.00
2022-08-17T21:24:45.392Z,100.00
2022-08-17T21:27:30.614Z,100.00
2022-08-17T21:30:47.445Z,100.00
2022-08-17T21:33:34.116Z,100.00
2022-08-17T21:36:25.532Z,100.00
2022-08-17T21:39:39.520Z,100.00
2022-08-17T21:42:29.535Z,100.00
2022-08-17T21:45:20.623Z,100.00
2022-08-17T21:48:16.469Z,100.00
2022-08-17T21:51:14.433Z,100.00
2022-08-17T21:54:03.740Z,100.00
2022-08-17T21:56:49.117Z,100.00
2022-08-17T21:59:38.743Z,100.00
2022-08-17T22:02:28.275Z,100.00
2022-08-17T22:05:15.276Z,100.00
2022-08-17T22:08:16.548Z,100.00
2022-08-17T22:11:02.436Z,100.00
2022-08-17T22:13:47.317Z,100.00
2022-08-17T22:16:34.786Z,100.00
2022-08-17T22:19:21.079Z,100.00
2022-08-17T22:22:09.654Z,100.00
2022-08-17T22:24:57.944Z,100.00
2022-08-17T22:27:45.678Z,100.00
2022-08-17T22:30:32.830Z,100.00
2022-08-17T22:33:33.311Z,100.00
2022-08-17T22:36:38.723Z,100.00
2022-08-17T22:39:23.789Z,100.00
2022-08-17T22:42:14.500Z,100.00
2022-08-17T22:45:00.304Z,100.00
2022-08-17T22:47:48.787Z,100.00
2022-08-17T22:50:34.216Z,100.00
2022-08-17T22:53:41.351Z,100.00
2022-08-17T22:56:45.211Z,100.00
2022-08-17T22:59:57.494Z,100.00
2022-08-17T23:03:09.083Z,100.00
2022-08-17T23:06:08.065Z,100.00
2022-08-17T23:08:57.929Z,100.00
2022-08-17T23:11:49.970Z,100.00
2022-08-17T23:14:39.184Z,100.00
2022-08-17T23:17:24.411Z,100.00
2022-08-17T23:20:12.957Z,100.00
2022-08-17T23:22:59.586Z,100.00
2022-08-17T23:25:46.251Z,100.00
2022-08-17T23:28:31.194Z,100.00
2022-08-17T23:31:19.859Z,100.00
2022-08-17T23:34:15.080Z,100.00
2022-08-17T23:37:02.252Z,100.00
2022-08-17T23:39:47.371Z,100.00
2022-08-17T23:42:33.644Z,100.00
2022-08-17T23:45:20.059Z,100.00
2022-08-17T23:48:07.812Z,100.00
2022-08-17T23:50:54.362Z,100.00
2022-08-17T23:53:45.132Z,100.00
2022-08-17T23:56:33.378Z,100.00
2022-08-17T23:59:20.467Z,100.00
